FHA6HX ESSA-EDDL
Flight info
| Callsign | FHA6HX |
|---|---|
| Flight time | 1h 46m |
| Altitude | 38000 |
| Route | NOSLI6G NOSLI N850 ABAMA DCT NEXEN DCT GIMRU DCT NIE DCT DENOL T851 HALME HALME1A |
| Aircraft | B738/M-SDE2E3FGHIRWXY/LB1 |
Departure
| Time | 2026-05-04 19:17 |
|---|---|
| Airport | Stockholm-Arlanda Airport (ESSA) |
Arrival
| Time | 2026-05-04 21:03 |
|---|---|
| Airport | Düsseldorf Airport (EDDL) |
| Time | Latitude | Longitude | Altitude | Speed | Heading |
|---|---|---|---|---|---|
| 2026-05-04 18:47 | 59.64755 | 17.92452 | 111 ft | 0 kts | 43° |
| 2026-05-04 19:07 | 59.64744 | 17.92431 | 110 ft | 4 kts | 38° |
| 2026-05-04 19:08 | 59.64721 | 17.92406 | 110 ft | 4 kts | 7° |
| 2026-05-04 19:08 | 59.64705 | 17.92414 | 111 ft | 2 kts | 288° |
| 2026-05-04 19:08 | 59.64704 | 17.92418 | 109 ft | 0 kts | 286° |
| 2026-05-04 19:11 | 59.64704 | 17.92417 | 109 ft | 0 kts | 286° |
| 2026-05-04 19:11 | 59.64708 | 17.92390 | 109 ft | 4 kts | 286° |
| 2026-05-04 19:11 | 59.64721 | 17.92306 | 111 ft | 9 kts | 286° |
| 2026-05-04 19:11 | 59.64741 | 17.92168 | 110 ft | 11 kts | 286° |
| 2026-05-04 19:12 | 59.64774 | 17.92072 | 107 ft | 9 kts | 346° |
| 2026-05-04 19:12 | 59.64941 | 17.92125 | 106 ft | 17 kts | 11° |
| 2026-05-04 19:12 | 59.65072 | 17.92172 | 106 ft | 22 kts | 10° |
| 2026-05-04 19:13 | 59.65228 | 17.92227 | 106 ft | 23 kts | 10° |
| 2026-05-04 19:13 | 59.65382 | 17.92282 | 104 ft | 22 kts | 10° |
| 2026-05-04 19:13 | 59.65532 | 17.92337 | 104 ft | 22 kts | 11° |
| 2026-05-04 19:13 | 59.65678 | 17.92392 | 104 ft | 21 kts | 11° |
| 2026-05-04 19:14 | 59.65816 | 17.92441 | 104 ft | 16 kts | 10° |
| 2026-05-04 19:14 | 59.65881 | 17.92448 | 105 ft | 8 kts | 343° |
| 2026-05-04 19:14 | 59.65911 | 17.92366 | 107 ft | 6 kts | 282° |
| 2026-05-04 19:14 | 59.65915 | 17.92326 | 110 ft | 1 kts | 281° |
| 2026-05-04 19:15 | 59.65915 | 17.92325 | 110 ft | 0 kts | 281° |
| 2026-05-04 19:15 | 59.65918 | 17.92292 | 110 ft | 5 kts | 281° |
| 2026-05-04 19:15 | 59.65927 | 17.92201 | 113 ft | 9 kts | 282° |
| 2026-05-04 19:16 | 59.65912 | 17.92115 | 111 ft | 6 kts | 202° |
| 2026-05-04 19:16 | 59.65818 | 17.92080 | 111 ft | 39 kts | 191° |
| 2026-05-04 19:16 | 59.65284 | 17.91886 | 105 ft | 113 kts | 190° |
| 2026-05-04 19:16 | 59.64318 | 17.91541 | 242 ft | 158 kts | 192° |
| 2026-05-04 19:17 | 59.63222 | 17.91182 | 1044 ft | 161 kts | 195° |
| 2026-05-04 19:17 | 59.62093 | 17.90720 | 1590 ft | 174 kts | 209° |
| 2026-05-04 19:17 | 59.61220 | 17.89064 | 1849 ft | 183 kts | 243° |
| 2026-05-04 19:17 | 59.60750 | 17.87599 | 1988 ft | 197 kts | 241° |
| 2026-05-04 19:18 | 59.59711 | 17.84546 | 2590 ft | 206 kts | 240° |
| 2026-05-04 19:18 | 59.59323 | 17.83410 | 2862 ft | 207 kts | 240° |
| 2026-05-04 19:18 | 59.58518 | 17.81003 | 3377 ft | 214 kts | 243° |
| 2026-05-04 19:18 | 59.57793 | 17.78307 | 3628 ft | 235 kts | 246° |
| 2026-05-04 19:19 | 59.57039 | 17.75389 | 4251 ft | 243 kts | 242° |
| 2026-05-04 19:19 | 59.55802 | 17.73012 | 4950 ft | 254 kts | 216° |
| 2026-05-04 19:19 | 59.54231 | 17.71332 | 5686 ft | 260 kts | 212° |
| 2026-05-04 19:19 | 59.53153 | 17.70270 | 6160 ft | 263 kts | 211° |
| 2026-05-04 19:20 | 59.50960 | 17.68149 | 7172 ft | 266 kts | 211° |
| 2026-05-04 19:20 | 59.49293 | 17.66537 | 7978 ft | 268 kts | 211° |
| 2026-05-04 19:20 | 59.47611 | 17.64904 | 8780 ft | 270 kts | 211° |
| 2026-05-04 19:20 | 59.45914 | 17.63253 | 9594 ft | 273 kts | 211° |
| 2026-05-04 19:21 | 59.44192 | 17.61571 | 10168 ft | 284 kts | 211° |
| 2026-05-04 19:21 | 59.42344 | 17.59753 | 10362 ft | 308 kts | 211° |
| 2026-05-04 19:21 | 59.40400 | 17.57845 | 10797 ft | 321 kts | 211° |
| 2026-05-04 19:21 | 59.38391 | 17.55884 | 11556 ft | 323 kts | 211° |
| 2026-05-04 19:22 | 59.36378 | 17.53927 | 12452 ft | 323 kts | 212° |
| 2026-05-04 19:22 | 59.34361 | 17.51965 | 13331 ft | 324 kts | 212° |
| 2026-05-04 19:22 | 59.32337 | 17.49996 | 14104 ft | 326 kts | 213° |
| 2026-05-04 19:22 | 59.30286 | 17.47998 | 14792 ft | 331 kts | 213° |
| 2026-05-04 19:23 | 59.28199 | 17.45967 | 15535 ft | 335 kts | 213° |
| 2026-05-04 19:23 | 59.26100 | 17.43929 | 16288 ft | 338 kts | 214° |
| 2026-05-04 19:23 | 59.23970 | 17.41862 | 16989 ft | 343 kts | 214° |
| 2026-05-04 19:23 | 59.21848 | 17.39806 | 17703 ft | 347 kts | 214° |
| 2026-05-04 19:24 | 59.19664 | 17.37694 | 18357 ft | 351 kts | 214° |
| 2026-05-04 19:24 | 59.17462 | 17.35570 | 19000 ft | 354 kts | 214° |
| 2026-05-04 19:24 | 59.15250 | 17.33439 | 19659 ft | 356 kts | 214° |
| 2026-05-04 19:24 | 59.13009 | 17.31280 | 20297 ft | 359 kts | 214° |
| 2026-05-04 19:25 | 59.10782 | 17.29139 | 20908 ft | 362 kts | 214° |
| 2026-05-04 19:25 | 59.08507 | 17.26954 | 21513 ft | 365 kts | 214° |
| 2026-05-04 19:25 | 59.06358 | 17.24482 | 22077 ft | 358 kts | 225° |
| 2026-05-04 19:25 | 59.04427 | 17.21398 | 22677 ft | 359 kts | 227° |
| 2026-05-04 19:26 | 59.02510 | 17.18248 | 23250 ft | 362 kts | 227° |
| 2026-05-04 19:26 | 59.00577 | 17.15066 | 23740 ft | 365 kts | 227° |
| 2026-05-04 19:26 | 58.98626 | 17.11874 | 24200 ft | 368 kts | 226° |
| 2026-05-04 19:26 | 58.96678 | 17.08711 | 24655 ft | 371 kts | 226° |
| 2026-05-04 19:27 | 58.94679 | 17.05484 | 25107 ft | 373 kts | 226° |
| 2026-05-04 19:27 | 58.92669 | 17.02254 | 25549 ft | 376 kts | 226° |
| 2026-05-04 19:27 | 58.90662 | 16.99038 | 25979 ft | 379 kts | 226° |
| 2026-05-04 19:27 | 58.88618 | 16.95772 | 26408 ft | 382 kts | 225° |
| 2026-05-04 19:28 | 58.86578 | 16.92520 | 26834 ft | 384 kts | 225° |
| 2026-05-04 19:28 | 58.84494 | 16.89203 | 27247 ft | 386 kts | 225° |
| 2026-05-04 19:28 | 58.82429 | 16.85920 | 27639 ft | 389 kts | 225° |
| 2026-05-04 19:28 | 58.80320 | 16.82573 | 28037 ft | 392 kts | 225° |
| 2026-05-04 19:29 | 58.78207 | 16.79225 | 28404 ft | 394 kts | 225° |
| 2026-05-04 19:29 | 58.76096 | 16.75886 | 28785 ft | 396 kts | 225° |
| 2026-05-04 19:29 | 58.73947 | 16.72492 | 29151 ft | 399 kts | 224° |
| 2026-05-04 19:29 | 58.71818 | 16.69136 | 29516 ft | 401 kts | 224° |
| 2026-05-04 19:30 | 58.69641 | 16.65708 | 29848 ft | 403 kts | 224° |
| 2026-05-04 19:30 | 58.67508 | 16.62355 | 30166 ft | 404 kts | 224° |
| 2026-05-04 19:30 | 58.65318 | 16.58918 | 30586 ft | 403 kts | 224° |
| 2026-05-04 19:30 | 58.63869 | 16.56649 | 30864 ft | 402 kts | 224° |
| 2026-05-04 19:31 | 58.61715 | 16.53278 | 31246 ft | 402 kts | 224° |
| 2026-05-04 19:31 | 58.58826 | 16.48767 | 31701 ft | 402 kts | 224° |
| 2026-05-04 19:31 | 58.57375 | 16.46506 | 31946 ft | 402 kts | 224° |
| 2026-05-04 19:31 | 58.55197 | 16.43117 | 32314 ft | 402 kts | 224° |
| 2026-05-04 19:32 | 58.53043 | 16.39768 | 32672 ft | 402 kts | 224° |
| 2026-05-04 19:32 | 58.50869 | 16.36395 | 33021 ft | 401 kts | 225° |
| 2026-05-04 19:32 | 58.48690 | 16.33017 | 33356 ft | 402 kts | 225° |
| 2026-05-04 19:32 | 58.46517 | 16.29655 | 33698 ft | 401 kts | 225° |
| 2026-05-04 19:33 | 58.44362 | 16.26324 | 33988 ft | 401 kts | 225° |
| 2026-05-04 19:33 | 58.42202 | 16.22992 | 34225 ft | 402 kts | 224° |
| 2026-05-04 19:33 | 58.40007 | 16.19610 | 34461 ft | 404 kts | 224° |
| 2026-05-04 19:33 | 58.37812 | 16.16235 | 34719 ft | 404 kts | 224° |
| 2026-05-04 19:34 | 58.35639 | 16.12899 | 34968 ft | 404 kts | 224° |
| 2026-05-04 19:34 | 58.33442 | 16.09532 | 35219 ft | 405 kts | 224° |
| 2026-05-04 19:34 | 58.31258 | 16.06190 | 35474 ft | 405 kts | 224° |
| 2026-05-04 19:34 | 58.29050 | 16.02818 | 35692 ft | 406 kts | 224° |
| 2026-05-04 19:35 | 58.26853 | 15.99467 | 35911 ft | 407 kts | 224° |
| 2026-05-04 19:35 | 58.24628 | 15.96078 | 36155 ft | 408 kts | 224° |
| 2026-05-04 19:35 | 58.22410 | 15.92707 | 36379 ft | 408 kts | 224° |
| 2026-05-04 19:35 | 58.20203 | 15.89357 | 36581 ft | 409 kts | 224° |
| 2026-05-04 19:36 | 58.17973 | 15.85978 | 36801 ft | 410 kts | 223° |
| 2026-05-04 19:36 | 58.15741 | 15.82602 | 37022 ft | 410 kts | 223° |
| 2026-05-04 19:36 | 58.13522 | 15.79252 | 37233 ft | 411 kts | 223° |
| 2026-05-04 19:36 | 58.11275 | 15.75864 | 37443 ft | 411 kts | 223° |
| 2026-05-04 19:37 | 58.09060 | 15.72530 | 37636 ft | 412 kts | 223° |
| 2026-05-04 19:37 | 58.06800 | 15.69133 | 37793 ft | 413 kts | 223° |
| 2026-05-04 19:37 | 58.04565 | 15.65778 | 37789 ft | 414 kts | 223° |
| 2026-05-04 19:38 | 58.00046 | 15.59013 | 37805 ft | 413 kts | 223° |
| 2026-05-04 19:38 | 57.95501 | 15.52430 | 37809 ft | 413 kts | 221° |
| 2026-05-04 19:39 | 57.90853 | 15.46107 | 37818 ft | 413 kts | 220° |
| 2026-05-04 19:39 | 57.86191 | 15.39806 | 37819 ft | 413 kts | 220° |
| 2026-05-04 19:40 | 57.81547 | 15.33505 | 37823 ft | 413 kts | 220° |
| 2026-05-04 19:40 | 57.76877 | 15.27162 | 37837 ft | 413 kts | 220° |
| 2026-05-04 19:41 | 57.72226 | 15.20857 | 37834 ft | 413 kts | 220° |
| 2026-05-04 19:41 | 57.67556 | 15.14546 | 37839 ft | 414 kts | 220° |
| 2026-05-04 19:42 | 57.62913 | 15.08292 | 37845 ft | 415 kts | 220° |
| 2026-05-04 19:42 | 57.58222 | 15.01995 | 37851 ft | 415 kts | 220° |
| 2026-05-04 19:43 | 57.53509 | 14.95688 | 37855 ft | 416 kts | 220° |
| 2026-05-04 19:43 | 57.48830 | 14.89448 | 37858 ft | 416 kts | 220° |
| 2026-05-04 19:44 | 57.44092 | 14.83149 | 37853 ft | 417 kts | 220° |
| 2026-05-04 19:44 | 57.39395 | 14.76924 | 37868 ft | 417 kts | 219° |
| 2026-05-04 19:45 | 57.34664 | 14.70676 | 37865 ft | 417 kts | 219° |
| 2026-05-04 19:45 | 57.29950 | 14.64470 | 37874 ft | 417 kts | 219° |
| 2026-05-04 19:46 | 57.25192 | 14.58226 | 37873 ft | 417 kts | 219° |
| 2026-05-04 19:46 | 57.20493 | 14.52079 | 37882 ft | 417 kts | 219° |
| 2026-05-04 19:47 | 57.15776 | 14.45928 | 37894 ft | 417 kts | 219° |
| 2026-05-04 19:47 | 57.11044 | 14.39776 | 37883 ft | 417 kts | 219° |
| 2026-05-04 19:48 | 57.06332 | 14.33671 | 37864 ft | 417 kts | 219° |
| 2026-05-04 19:48 | 57.01573 | 14.27525 | 37888 ft | 416 kts | 219° |
| 2026-05-04 19:49 | 56.96840 | 14.21430 | 37893 ft | 416 kts | 219° |
| 2026-05-04 19:49 | 56.92224 | 14.15505 | 37894 ft | 416 kts | 219° |
| 2026-05-04 19:50 | 56.87500 | 14.09462 | 37900 ft | 416 kts | 219° |
| 2026-05-04 19:50 | 56.82748 | 14.03400 | 37903 ft | 416 kts | 219° |
| 2026-05-04 19:51 | 56.78008 | 13.97373 | 37903 ft | 416 kts | 219° |
| 2026-05-04 19:51 | 56.73267 | 13.91364 | 37915 ft | 416 kts | 218° |
| 2026-05-04 19:52 | 56.68481 | 13.85317 | 37911 ft | 416 kts | 218° |
| 2026-05-04 19:52 | 56.63734 | 13.79338 | 37915 ft | 417 kts | 218° |
| 2026-05-04 19:53 | 56.58980 | 13.73369 | 37912 ft | 417 kts | 218° |
| 2026-05-04 19:53 | 56.54217 | 13.67407 | 37920 ft | 417 kts | 218° |
| 2026-05-04 19:54 | 56.49436 | 13.61441 | 37922 ft | 417 kts | 218° |
| 2026-05-04 19:54 | 56.44652 | 13.55489 | 37925 ft | 418 kts | 218° |
| 2026-05-04 19:55 | 56.39863 | 13.49551 | 37926 ft | 418 kts | 218° |
| 2026-05-04 19:55 | 56.35072 | 13.43628 | 37928 ft | 418 kts | 218° |
| 2026-05-04 19:56 | 56.30274 | 13.37715 | 37938 ft | 418 kts | 218° |
| 2026-05-04 19:56 | 56.25473 | 13.31817 | 37936 ft | 418 kts | 218° |
| 2026-05-04 19:57 | 56.20768 | 13.26055 | 37937 ft | 418 kts | 218° |
| 2026-05-04 19:57 | 56.15968 | 13.20193 | 37936 ft | 418 kts | 218° |
| 2026-05-04 19:58 | 56.11159 | 13.14339 | 37937 ft | 418 kts | 218° |
| 2026-05-04 19:58 | 56.06346 | 13.08499 | 37940 ft | 418 kts | 218° |
| 2026-05-04 19:59 | 56.02132 | 13.03399 | 37935 ft | 418 kts | 218° |
| 2026-05-04 19:59 | 55.97328 | 12.97601 | 37935 ft | 417 kts | 218° |
| 2026-05-04 20:00 | 55.94106 | 12.93724 | 37934 ft | 417 kts | 217° |
| 2026-05-04 20:00 | 55.89416 | 12.88094 | 37942 ft | 417 kts | 217° |
| 2026-05-04 20:01 | 55.84597 | 12.82325 | 37952 ft | 417 kts | 217° |
| 2026-05-04 20:01 | 55.80425 | 12.77346 | 37959 ft | 417 kts | 217° |
| 2026-05-04 20:02 | 55.75621 | 12.71627 | 37962 ft | 417 kts | 217° |
| 2026-05-04 20:02 | 55.70814 | 12.65924 | 37964 ft | 417 kts | 217° |
| 2026-05-04 20:03 | 55.65966 | 12.60188 | 37967 ft | 417 kts | 217° |
| 2026-05-04 20:03 | 55.61149 | 12.54507 | 37964 ft | 417 kts | 217° |
| 2026-05-04 20:04 | 55.56323 | 12.48831 | 37966 ft | 417 kts | 217° |
| 2026-05-04 20:04 | 55.51644 | 12.43345 | 37961 ft | 417 kts | 217° |
| 2026-05-04 20:05 | 55.47138 | 12.38077 | 37954 ft | 417 kts | 217° |
| 2026-05-04 20:05 | 55.42302 | 12.32439 | 37958 ft | 417 kts | 217° |
| 2026-05-04 20:06 | 55.37467 | 12.26819 | 37964 ft | 417 kts | 217° |
| 2026-05-04 20:06 | 55.32635 | 12.21219 | 37954 ft | 417 kts | 217° |
| 2026-05-04 20:07 | 55.27790 | 12.15621 | 37954 ft | 417 kts | 217° |
| 2026-05-04 20:07 | 55.22943 | 12.10038 | 37953 ft | 417 kts | 217° |
| 2026-05-04 20:08 | 55.18081 | 12.04453 | 37958 ft | 417 kts | 217° |
| 2026-05-04 20:08 | 55.13230 | 11.98897 | 37950 ft | 417 kts | 216° |
| 2026-05-04 20:09 | 55.08363 | 11.93340 | 37952 ft | 417 kts | 216° |
| 2026-05-04 20:09 | 55.03506 | 11.87809 | 37957 ft | 417 kts | 216° |
| 2026-05-04 20:10 | 54.98632 | 11.82276 | 37962 ft | 417 kts | 216° |
| 2026-05-04 20:10 | 54.93769 | 11.76772 | 37960 ft | 417 kts | 216° |
| 2026-05-04 20:11 | 54.88922 | 11.71300 | 37967 ft | 417 kts | 216° |
| 2026-05-04 20:11 | 54.84044 | 11.65808 | 37968 ft | 416 kts | 216° |
| 2026-05-04 20:12 | 54.79209 | 11.60297 | 37970 ft | 415 kts | 218° |
| 2026-05-04 20:12 | 54.74565 | 11.54483 | 37975 ft | 414 kts | 219° |
| 2026-05-04 20:13 | 54.69907 | 11.48602 | 37974 ft | 414 kts | 219° |
| 2026-05-04 20:13 | 54.65213 | 11.42765 | 37977 ft | 414 kts | 218° |
| 2026-05-04 20:14 | 54.60537 | 11.36989 | 37978 ft | 414 kts | 218° |
| 2026-05-04 20:14 | 54.55859 | 11.31247 | 37979 ft | 414 kts | 217° |
| 2026-05-04 20:15 | 54.50985 | 11.25944 | 37979 ft | 415 kts | 214° |
| 2026-05-04 20:15 | 54.46177 | 11.20948 | 37978 ft | 415 kts | 214° |
| 2026-05-04 20:16 | 54.41231 | 11.15803 | 37978 ft | 415 kts | 214° |
| 2026-05-04 20:16 | 54.36303 | 11.10652 | 37976 ft | 416 kts | 214° |
| 2026-05-04 20:17 | 54.31371 | 11.05494 | 37977 ft | 416 kts | 214° |
| 2026-05-04 20:17 | 54.26412 | 11.00318 | 37974 ft | 416 kts | 214° |
| 2026-05-04 20:18 | 54.21802 | 10.95519 | 37981 ft | 416 kts | 214° |
| 2026-05-04 20:18 | 54.16822 | 10.90350 | 37973 ft | 416 kts | 214° |
| 2026-05-04 20:19 | 54.11846 | 10.85200 | 37984 ft | 416 kts | 214° |
| 2026-05-04 20:19 | 54.06907 | 10.80104 | 37977 ft | 417 kts | 214° |
| 2026-05-04 20:20 | 54.01962 | 10.75014 | 37982 ft | 417 kts | 214° |
| 2026-05-04 20:20 | 53.97002 | 10.69925 | 37985 ft | 417 kts | 214° |
| 2026-05-04 20:21 | 53.92023 | 10.64829 | 37983 ft | 417 kts | 214° |
| 2026-05-04 20:21 | 53.84608 | 10.57268 | 37989 ft | 416 kts | 214° |
| 2026-05-04 20:22 | 53.79642 | 10.52222 | 37985 ft | 416 kts | 213° |
| 2026-05-04 20:22 | 53.74679 | 10.47192 | 37995 ft | 416 kts | 213° |
| 2026-05-04 20:23 | 53.69695 | 10.42156 | 37981 ft | 416 kts | 213° |
| 2026-05-04 20:23 | 53.64745 | 10.37168 | 37983 ft | 416 kts | 213° |
| 2026-05-04 20:24 | 53.59784 | 10.32183 | 37988 ft | 415 kts | 213° |
| 2026-05-04 20:24 | 53.54925 | 10.27313 | 37983 ft | 415 kts | 213° |
| 2026-05-04 20:25 | 53.49967 | 10.22357 | 37989 ft | 415 kts | 213° |
| 2026-05-04 20:25 | 53.44990 | 10.17396 | 37981 ft | 415 kts | 213° |
| 2026-05-04 20:26 | 53.40043 | 10.12480 | 37985 ft | 414 kts | 213° |
| 2026-05-04 20:26 | 53.35094 | 10.07574 | 37981 ft | 414 kts | 213° |
| 2026-05-04 20:27 | 53.30150 | 10.02686 | 37981 ft | 413 kts | 213° |
| 2026-05-04 20:27 | 53.25207 | 9.97814 | 37975 ft | 412 kts | 213° |
| 2026-05-04 20:28 | 53.20289 | 9.92978 | 37965 ft | 412 kts | 213° |
| 2026-05-04 20:28 | 53.16172 | 9.88940 | 37969 ft | 411 kts | 213° |
| 2026-05-04 20:29 | 53.10440 | 9.83333 | 37969 ft | 410 kts | 213° |
| 2026-05-04 20:29 | 53.05527 | 9.78541 | 37771 ft | 414 kts | 213° |
| 2026-05-04 20:30 | 53.03026 | 9.76105 | 37392 ft | 414 kts | 213° |
| 2026-05-04 20:30 | 53.00569 | 9.73718 | 37039 ft | 408 kts | 213° |
| 2026-05-04 20:30 | 52.98950 | 9.72148 | 36803 ft | 403 kts | 213° |
| 2026-05-04 20:30 | 52.95760 | 9.69057 | 36344 ft | 393 kts | 213° |
| 2026-05-04 20:31 | 52.94197 | 9.67545 | 36105 ft | 389 kts | 213° |
| 2026-05-04 20:31 | 52.91862 | 9.65287 | 35779 ft | 383 kts | 213° |
| 2026-05-04 20:31 | 52.89574 | 9.63076 | 35451 ft | 377 kts | 213° |
| 2026-05-04 20:31 | 52.87340 | 9.60920 | 35128 ft | 371 kts | 213° |
| 2026-05-04 20:32 | 52.85110 | 9.58770 | 34807 ft | 366 kts | 213° |
| 2026-05-04 20:32 | 52.82933 | 9.56673 | 34490 ft | 361 kts | 213° |
| 2026-05-04 20:32 | 52.81002 | 9.54815 | 34215 ft | 358 kts | 213° |
| 2026-05-04 20:32 | 52.79234 | 9.53116 | 33954 ft | 354 kts | 214° |
| 2026-05-04 20:33 | 52.77162 | 9.51018 | 33579 ft | 350 kts | 219° |
| 2026-05-04 20:33 | 52.75310 | 9.48378 | 33240 ft | 350 kts | 227° |
| 2026-05-04 20:33 | 52.73713 | 9.45312 | 32841 ft | 352 kts | 232° |
| 2026-05-04 20:33 | 52.72197 | 9.42192 | 32432 ft | 351 kts | 232° |
| 2026-05-04 20:34 | 52.70677 | 9.39048 | 32041 ft | 348 kts | 232° |
| 2026-05-04 20:34 | 52.69187 | 9.35971 | 31657 ft | 346 kts | 232° |
| 2026-05-04 20:34 | 52.67679 | 9.32868 | 31270 ft | 344 kts | 232° |
| 2026-05-04 20:34 | 52.66177 | 9.29789 | 30893 ft | 342 kts | 232° |
| 2026-05-04 20:35 | 52.64703 | 9.26775 | 30527 ft | 340 kts | 232° |
| 2026-05-04 20:35 | 52.63215 | 9.23742 | 30153 ft | 339 kts | 232° |
| 2026-05-04 20:35 | 52.61746 | 9.20753 | 29744 ft | 338 kts | 232° |
| 2026-05-04 20:35 | 52.60263 | 9.17741 | 29317 ft | 336 kts | 232° |
| 2026-05-04 20:36 | 52.58870 | 9.14914 | 28918 ft | 335 kts | 232° |
| 2026-05-04 20:36 | 52.57418 | 9.11973 | 28512 ft | 334 kts | 232° |
| 2026-05-04 20:36 | 52.55961 | 9.09024 | 28105 ft | 333 kts | 231° |
| 2026-05-04 20:36 | 52.54491 | 9.06053 | 27697 ft | 332 kts | 231° |
| 2026-05-04 20:37 | 52.53048 | 9.03141 | 27324 ft | 331 kts | 231° |
| 2026-05-04 20:37 | 52.51589 | 9.00200 | 26994 ft | 329 kts | 231° |
| 2026-05-04 20:37 | 52.50161 | 8.97324 | 26656 ft | 327 kts | 231° |
| 2026-05-04 20:37 | 52.48722 | 8.94430 | 26325 ft | 326 kts | 231° |
| 2026-05-04 20:38 | 52.47314 | 8.91600 | 26010 ft | 325 kts | 231° |
| 2026-05-04 20:38 | 52.45882 | 8.88727 | 25678 ft | 324 kts | 230° |
| 2026-05-04 20:38 | 52.44470 | 8.85896 | 25360 ft | 323 kts | 230° |
| 2026-05-04 20:38 | 52.43041 | 8.83036 | 25042 ft | 322 kts | 230° |
| 2026-05-04 20:39 | 52.41628 | 8.80209 | 24730 ft | 322 kts | 230° |
| 2026-05-04 20:39 | 52.40216 | 8.77388 | 24425 ft | 322 kts | 230° |
| 2026-05-04 20:39 | 52.38788 | 8.74538 | 24114 ft | 322 kts | 230° |
| 2026-05-04 20:39 | 52.37365 | 8.71702 | 23802 ft | 322 kts | 230° |
| 2026-05-04 20:40 | 52.35952 | 8.68888 | 23509 ft | 322 kts | 230° |
| 2026-05-04 20:40 | 52.34519 | 8.66040 | 23149 ft | 323 kts | 230° |
| 2026-05-04 20:40 | 52.33100 | 8.63220 | 22800 ft | 323 kts | 230° |
| 2026-05-04 20:40 | 52.31672 | 8.60387 | 22451 ft | 323 kts | 230° |
| 2026-05-04 20:41 | 52.30257 | 8.57582 | 22111 ft | 322 kts | 230° |
| 2026-05-04 20:41 | 52.28944 | 8.54982 | 21799 ft | 322 kts | 229° |
| 2026-05-04 20:41 | 52.27494 | 8.52115 | 21469 ft | 321 kts | 229° |
| 2026-05-04 20:41 | 52.26092 | 8.49344 | 21211 ft | 318 kts | 229° |
| 2026-05-04 20:42 | 52.24675 | 8.46548 | 20961 ft | 316 kts | 229° |
| 2026-05-04 20:42 | 52.23297 | 8.43831 | 20715 ft | 314 kts | 229° |
| 2026-05-04 20:42 | 52.21899 | 8.41076 | 20456 ft | 312 kts | 229° |
| 2026-05-04 20:42 | 52.20526 | 8.38376 | 20204 ft | 311 kts | 229° |
| 2026-05-04 20:43 | 52.19098 | 8.35726 | 19956 ft | 309 kts | 226° |
| 2026-05-04 20:43 | 52.17643 | 8.33189 | 19683 ft | 309 kts | 225° |
| 2026-05-04 20:43 | 52.16151 | 8.30631 | 19373 ft | 310 kts | 225° |
| 2026-05-04 20:43 | 52.14674 | 8.28100 | 19101 ft | 310 kts | 225° |
| 2026-05-04 20:44 | 52.13189 | 8.25550 | 18810 ft | 310 kts | 225° |
| 2026-05-04 20:44 | 52.11709 | 8.23002 | 18530 ft | 310 kts | 225° |
| 2026-05-04 20:44 | 52.10215 | 8.20427 | 18193 ft | 312 kts | 225° |
| 2026-05-04 20:44 | 52.08737 | 8.17877 | 17866 ft | 311 kts | 225° |
| 2026-05-04 20:45 | 52.07264 | 8.15333 | 17710 ft | 304 kts | 225° |
| 2026-05-04 20:45 | 52.05832 | 8.12861 | 17400 ft | 301 kts | 225° |
| 2026-05-04 20:45 | 52.04388 | 8.10369 | 17019 ft | 302 kts | 225° |
| 2026-05-04 20:45 | 52.02967 | 8.07919 | 16685 ft | 301 kts | 225° |
| 2026-05-04 20:46 | 52.01518 | 8.05424 | 16361 ft | 300 kts | 225° |
| 2026-05-04 20:46 | 52.00100 | 8.02984 | 16030 ft | 299 kts | 225° |
| 2026-05-04 20:46 | 51.98670 | 8.00525 | 15717 ft | 298 kts | 225° |
| 2026-05-04 20:46 | 51.97265 | 7.98111 | 15396 ft | 297 kts | 225° |
| 2026-05-04 20:47 | 51.95844 | 7.95673 | 15087 ft | 296 kts | 225° |
| 2026-05-04 20:47 | 51.94424 | 7.93237 | 14780 ft | 295 kts | 225° |
| 2026-05-04 20:47 | 51.93026 | 7.90841 | 14472 ft | 294 kts | 225° |
| 2026-05-04 20:47 | 51.91610 | 7.88419 | 14154 ft | 294 kts | 225° |
| 2026-05-04 20:48 | 51.90220 | 7.86042 | 13876 ft | 293 kts | 225° |
| 2026-05-04 20:48 | 51.88811 | 7.83636 | 13550 ft | 292 kts | 225° |
| 2026-05-04 20:48 | 51.87427 | 7.81273 | 13228 ft | 291 kts | 225° |
| 2026-05-04 20:48 | 51.86028 | 7.78889 | 12928 ft | 289 kts | 225° |
| 2026-05-04 20:49 | 51.84651 | 7.76542 | 12626 ft | 288 kts | 225° |
| 2026-05-04 20:49 | 51.83272 | 7.74197 | 12335 ft | 287 kts | 225° |
| 2026-05-04 20:49 | 51.81913 | 7.71885 | 12019 ft | 286 kts | 225° |
| 2026-05-04 20:49 | 51.80540 | 7.69554 | 11735 ft | 284 kts | 225° |
| 2026-05-04 20:50 | 51.79185 | 7.67254 | 11439 ft | 283 kts | 225° |
| 2026-05-04 20:50 | 51.77825 | 7.64949 | 11179 ft | 281 kts | 225° |
| 2026-05-04 20:50 | 51.76486 | 7.62681 | 10902 ft | 280 kts | 225° |
| 2026-05-04 20:50 | 51.75137 | 7.60398 | 10629 ft | 279 kts | 225° |
| 2026-05-04 20:51 | 51.73806 | 7.58147 | 10371 ft | 277 kts | 225° |
| 2026-05-04 20:51 | 51.72474 | 7.55897 | 10133 ft | 275 kts | 225° |
| 2026-05-04 20:51 | 51.71514 | 7.54277 | 10007 ft | 271 kts | 225° |
| 2026-05-04 20:51 | 51.70230 | 7.52112 | 9818 ft | 267 kts | 225° |
| 2026-05-04 20:52 | 51.68941 | 7.49940 | 9547 ft | 266 kts | 225° |
| 2026-05-04 20:52 | 51.67678 | 7.47813 | 9272 ft | 265 kts | 225° |
| 2026-05-04 20:52 | 51.66404 | 7.45671 | 8985 ft | 264 kts | 225° |
| 2026-05-04 20:52 | 51.65126 | 7.43523 | 8701 ft | 263 kts | 225° |
| 2026-05-04 20:53 | 51.63875 | 7.41422 | 8498 ft | 259 kts | 225° |
| 2026-05-04 20:53 | 51.62627 | 7.39327 | 8284 ft | 256 kts | 225° |
| 2026-05-04 20:53 | 51.61408 | 7.37284 | 8084 ft | 253 kts | 225° |
| 2026-05-04 20:53 | 51.60206 | 7.35270 | 7848 ft | 251 kts | 225° |
| 2026-05-04 20:54 | 51.58969 | 7.33200 | 7373 ft | 259 kts | 225° |
| 2026-05-04 20:54 | 51.57725 | 7.31121 | 7029 ft | 260 kts | 225° |
| 2026-05-04 20:54 | 51.56472 | 7.29027 | 6737 ft | 259 kts | 225° |
| 2026-05-04 20:54 | 51.55221 | 7.26939 | 6448 ft | 257 kts | 225° |
| 2026-05-04 20:55 | 51.53995 | 7.24893 | 6139 ft | 256 kts | 225° |
| 2026-05-04 20:55 | 51.52751 | 7.22821 | 5805 ft | 256 kts | 225° |
| 2026-05-04 20:55 | 51.51513 | 7.20758 | 5483 ft | 255 kts | 225° |
| 2026-05-04 20:55 | 51.50295 | 7.18732 | 5208 ft | 254 kts | 225° |
| 2026-05-04 20:56 | 51.49062 | 7.16680 | 4912 ft | 253 kts | 225° |
| 2026-05-04 20:56 | 51.47838 | 7.14645 | 4619 ft | 252 kts | 225° |
| 2026-05-04 20:56 | 51.46654 | 7.12678 | 4547 ft | 242 kts | 225° |
| 2026-05-04 20:56 | 51.45510 | 7.10780 | 4490 ft | 228 kts | 225° |
| 2026-05-04 20:57 | 51.44445 | 7.09015 | 4384 ft | 214 kts | 225° |
| 2026-05-04 20:57 | 51.43447 | 7.07352 | 4273 ft | 201 kts | 226° |
| 2026-05-04 20:57 | 51.42554 | 7.05708 | 4184 ft | 187 kts | 229° |
| 2026-05-04 20:57 | 51.41774 | 7.04145 | 4104 ft | 174 kts | 231° |
| 2026-05-04 20:58 | 51.41051 | 7.02650 | 3897 ft | 169 kts | 231° |
| 2026-05-04 20:58 | 51.40322 | 7.01133 | 3693 ft | 172 kts | 231° |
| 2026-05-04 20:58 | 51.39596 | 6.99614 | 3459 ft | 173 kts | 231° |
| 2026-05-04 20:58 | 51.38868 | 6.98090 | 3230 ft | 172 kts | 231° |
| 2026-05-04 20:59 | 51.38140 | 6.96566 | 2992 ft | 172 kts | 231° |
| 2026-05-04 20:59 | 51.37426 | 6.95068 | 2768 ft | 171 kts | 231° |
| 2026-05-04 20:59 | 51.36699 | 6.93546 | 2537 ft | 171 kts | 231° |
| 2026-05-04 20:59 | 51.35990 | 6.92059 | 2305 ft | 170 kts | 231° |
| 2026-05-04 21:00 | 51.35278 | 6.90542 | 2094 ft | 168 kts | 232° |
| 2026-05-04 21:00 | 51.34582 | 6.89062 | 1909 ft | 168 kts | 231° |
| 2026-05-04 21:00 | 51.33875 | 6.87565 | 1595 ft | 166 kts | 231° |
| 2026-05-04 21:00 | 51.33219 | 6.86151 | 1443 ft | 147 kts | 230° |
| 2026-05-04 21:01 | 51.32583 | 6.84908 | 1196 ft | 143 kts | 231° |
| 2026-05-04 21:01 | 51.31986 | 6.83647 | 997 ft | 142 kts | 230° |
| 2026-05-04 21:01 | 51.31378 | 6.82378 | 842 ft | 146 kts | 231° |
| 2026-05-04 21:01 | 51.30754 | 6.81068 | 642 ft | 147 kts | 231° |
| 2026-05-04 21:02 | 51.30135 | 6.79766 | 407 ft | 148 kts | 231° |
| 2026-05-04 21:02 | 51.29510 | 6.78451 | 215 ft | 148 kts | 232° |
| 2026-05-04 21:02 | 51.28913 | 6.77201 | 124 ft | 128 kts | 229° |
| 2026-05-04 21:02 | 51.28505 | 6.76342 | 123 ft | 65 kts | 232° |
| 2026-05-04 21:03 | 51.28353 | 6.76073 | 128 ft | 23 kts | 212° |
| 2026-05-04 21:03 | 51.28254 | 6.75997 | 126 ft | 12 kts | 204° |
| 2026-05-04 21:03 | 51.28177 | 6.75940 | 126 ft | 12 kts | 205° |
| 2026-05-04 21:03 | 51.28104 | 6.75883 | 126 ft | 12 kts | 206° |
| 2026-05-04 21:04 | 51.28036 | 6.75835 | 126 ft | 11 kts | 198° |
| 2026-05-04 21:04 | 51.27969 | 6.75825 | 128 ft | 12 kts | 185° |
| 2026-05-04 21:04 | 51.27888 | 6.75817 | 128 ft | 12 kts | 181° |
| 2026-05-04 21:04 | 51.27809 | 6.75814 | 126 ft | 11 kts | 181° |
| 2026-05-04 21:05 | 51.27732 | 6.75812 | 129 ft | 11 kts | 181° |
| 2026-05-04 21:05 | 51.27657 | 6.75811 | 128 ft | 11 kts | 175° |
| 2026-05-04 21:05 | 51.27613 | 6.75836 | 126 ft | 2 kts | 141° |
| 2026-05-04 21:05 | 51.27615 | 6.75861 | 126 ft | 3 kts | 77° |
| 2026-05-04 21:06 | 51.27624 | 6.75899 | 127 ft | 5 kts | 67° |
| 2026-05-04 21:06 | 51.27632 | 6.75930 | 125 ft | 0 kts | 67° |